CheckWX is a tool to help pilots better visualize weather data.  It is not intended as a substitute for an official pre-flight weather briefing.

08:13:46 UTC

KHRX METAR
Hereford Municipal Airport
Hereford, Texas, USA
Current

19 mins ago

KHRX 220755Z AUTO 13011KT 10SM SCT065 SCT080 OVC100 02/M02 A2990 RMK AO2 T00241017
Observed
Feb-22 @ 07:55 UTC
Wind
  • 130° at 11 KTS
Visibility
10 SM
Flight Rules
VFR
Cloud Levels
  • Scattered at 6,500' AGL
  • Scattered at 8,000' AGL
  • Overcast at 10,000' AGL
Temperature
C / 36°F
Dewpoint
-2°C / 28°F
Humidity
75%
Altimeter
29.9" Hg
Pressure
1012.52 hPa
Previous

39 mins ago

KHRX 220735Z AUTO 12012KT 10SM SCT065 SCT075 BKN090 02/M02 A2989 RMK AO2 T00221021
Observed
Feb-22 @ 07:35 UTC
Wind
  • 120° at 12 KTS
Visibility
10 SM
Flight Rules
VFR
Cloud Levels
  • Scattered at 6,500' AGL
  • Scattered at 7,500' AGL
  • Broken at 9,000' AGL
Temperature
C / 36°F
Dewpoint
-2°C / 28°F
Humidity
75%
Altimeter
29.89" Hg
Pressure
1012.22 hPa
Previous

59 mins ago

KHRX 220715Z AUTO 13010KT 10SM SCT075 SCT100 SCT120 02/M03 A2990 RMK AO2 T00221026
Observed
Feb-22 @ 07:15 UTC
Wind
  • 130° at 10 KTS
Visibility
10 SM
Flight Rules
VFR
Cloud Levels
  • Scattered at 7,500' AGL
  • Scattered at 10,000' AGL
  • Scattered at 12,000' AGL
Temperature
C / 36°F
Dewpoint
-3°C / 27°F
Humidity
70%
Altimeter
29.9" Hg
Pressure
1012.52 hPa